»·PEaware :: N973SE KOXR-KSBP

N973SE :: KOXR-KSBP

FLIGHT INFORMATION

Flight Status: Arrived
Operator: Privately registered:
United States
More flights under this callsign
Pilot: Stig E. (4778)
Aircraft: CESSNA 310
(C310)
More flights by this aircraft type
Origin: KOXR Oxnard
United States
Destination: KSBP San Luis Co Regl
United States
More flights between these airports :: More routes between these airports
Route: FLW MISHI
File this flight plan on PilotEdge
Remarks:
Altitude:
(Current/Filed)
12,500ft
Speed:
(Current/Filed)
170kts
Departed: 02-Feb-19 11:27 PM
Arrived: 03-Feb-19 12:16 AM
Distance/Time
Traveled:
94nm/0:49
Distance/Time
To Go:
Arrived

Flight Plot

Page will automatically refresh every two minutes.

Flight plan parsing failed; only flown route is shown


Map Options




Map Legend


Flown Route
Filed Route
Departure Airport
Arrival Airport
Navaid (VOR, NDB)
Fix

Horizontal Profiles

Position Reports

Time Latitude Longitude Heading Altitude Ground
Speed
02-Feb-19 23:21 34.198719 -119.202074 359 43ft 0kts
02-Feb-19 23:22 34.198719 -119.202074 359 43ft 0kts
02-Feb-19 23:23 34.199195 -119.202068 5 43ft 8kts
02-Feb-19 23:24 34.199843 -119.197570 25 46ft 6kts
02-Feb-19 23:25 34.200300 -119.197547 0 46ft 5kts
02-Feb-19 23:26 34.200866 -119.218178 268 524ft 126kts
02-Feb-19 23:27 34.214398 -119.258240 352 1568ft 160kts
02-Feb-19 23:28 34.260041 -119.262312 355 2574ft 168kts
02-Feb-19 23:29 34.303566 -119.281659 327 3576ft 170kts
02-Feb-19 23:30 34.344540 -119.311047 325 4616ft 170kts
02-Feb-19 23:31 34.384340 -119.340137 323 5805ft 166kts
02-Feb-19 23:32 34.423949 -119.369150 322 7005ft 165kts
02-Feb-19 23:33 34.463652 -119.398262 321 8207ft 166kts
02-Feb-19 23:34 34.503778 -119.427718 320 9420ft 165kts
02-Feb-19 23:35 34.543429 -119.456857 319 10619ft 165kts
02-Feb-19 23:36 34.581203 -119.484651 318 11766ft 163kts
02-Feb-19 23:37 34.621585 -119.514269 320 12474ft 185kts
02-Feb-19 23:38 34.668568 -119.548081 320 12468ft 200kts
02-Feb-19 23:39 34.714989 -119.582132 319 12467ft 189kts
02-Feb-19 23:40 34.759344 -119.614889 319 12467ft 183kts
02-Feb-19 23:41 34.803345 -119.647452 319 12464ft 182kts
02-Feb-19 23:42 34.846316 -119.679914 306 12458ft 178kts
02-Feb-19 23:43 34.857661 -119.735432 275 12191ft 167kts
02-Feb-19 23:44 34.865752 -119.792754 275 11699ft 168kts
02-Feb-19 23:45 34.874037 -119.850323 275 11207ft 170kts
02-Feb-19 23:46 34.882555 -119.908219 275 10715ft 172kts
02-Feb-19 23:47 34.891509 -119.966951 275 10220ft 174kts
02-Feb-19 23:48 34.900763 -120.025889 275 9725ft 175kts
02-Feb-19 23:49 34.928444 -120.077072 302 9239ft 188kts
02-Feb-19 23:50 34.963494 -120.125685 302 8744ft 190kts
02-Feb-19 23:51 34.999194 -120.174123 302 8253ft 192kts
02-Feb-19 23:52 35.035801 -120.222711 302 7777ft 195kts
02-Feb-19 23:53 35.072759 -120.271607 302 7304ft 195kts
02-Feb-19 23:54 35.109543 -120.320822 302 6810ft 196kts
02-Feb-19 23:55 35.132822 -120.375498 271 6288ft 180kts
02-Feb-19 23:56 35.135876 -120.435090 259 5778ft 173kts
02-Feb-19 23:57 35.149750 -120.490523 305 5233ft 195kts
02-Feb-19 23:58 35.187401 -120.539408 305 4722ft 195kts
02-Feb-19 23:59 35.224345 -120.588688 305 4191ft 195kts
03-Feb-19 00:00 35.259448 -120.638163 293 3998ft 179kts
03-Feb-19 00:01 35.283326 -120.690279 289 4004ft 171kts
03-Feb-19 00:02 35.305775 -120.742418 288 3995ft 172kts
03-Feb-19 00:03 35.327598 -120.792054 289 4004ft 158kts
03-Feb-19 00:04 35.348515 -120.837612 290 4013ft 152kts
03-Feb-19 00:05 35.376322 -120.876577 299 3988ft 141kts
03-Feb-19 00:06 35.379206 -120.905616 175 3994ft 98kts
03-Feb-19 00:07 35.365647 -120.871434 126 3996ft 118kts
03-Feb-19 00:08 35.349868 -120.837209 130 3892ft 117kts
03-Feb-19 00:09 35.332371 -120.805594 135 3353ft 113kts
03-Feb-19 00:10 35.313643 -120.772701 135 2720ft 118kts
03-Feb-19 00:11 35.294902 -120.740162 134 2053ft 113kts
03-Feb-19 00:12 35.276744 -120.708712 135 1445ft 114kts
03-Feb-19 00:14 35.258658 -120.677489 135 838ft 111kts
03-Feb-19 00:15 35.240968 -120.647252 134 236ft 96kts
03-Feb-19 00:16 35.235668 -120.638140 130 215ft 5kts
03-Feb-19 00:17 35.237730 -120.638502 332 216ft 25kts
03-Feb-19 00:18 35.238376 -120.639138 267 216ft 0kts

Navigation Log

Ident Type
Flight plan parsing failed, navigation log unavailable